Time;durP1;ratioP1;P1;durP2;ratioP2;P2;SDS_P1;SDS_P2;PMS_P1;PMS_P2;Temp;Humidity;BMP_temperature;BMP_pressure;BME280_temperature;BME280_humidity;BME280_pressure;Samples;Min_cycle;Max_cycle;Signal;HPM_P1;HPM_P2
2022/03/03 00:00:49;;;;;;;6.03;4.30;;;5.00;90.50;;;;;;5082359;28;20164;-78
2022/03/03 00:03:15;;;;;;;6.20;4.73;;;5.00;90.80;;;;;;5117593;27;20188;-81
2022/03/03 00:05:43;;;;;;;6.43;4.63;;;4.90;91.00;;;;;;5112665;27;20252;-78
2022/03/03 00:08:09;;;;;;;6.00;4.67;;;4.90;91.20;;;;;;5114528;27;20188;-81
2022/03/03 00:10:34;;;;;;;6.40;5.00;;;4.90;91.40;;;;;;5079175;28;20222;-81
2022/03/03 00:13:00;;;;;;;6.83;5.10;;;4.80;91.70;;;;;;5078843;28;20208;-80
2022/03/03 00:15:28;;;;;;;6.07;4.70;;;4.80;91.90;;;;;;5120190;27;20187;-80
2022/03/03 00:17:56;;;;;;;6.50;4.60;;;4.80;92.40;;;;;;5078760;28;20195;-81
2022/03/03 00:20:22;;;;;;;7.57;5.10;;;4.70;92.40;;;;;;5084783;28;20199;-81
2022/03/03 00:22:47;;;;;;;7.03;5.30;;;4.70;92.80;;;;;;5081659;28;20194;-82
2022/03/03 00:25:13;;;;;;;6.20;4.60;;;4.70;93.10;;;;;;5086202;28;20175;-77
2022/03/03 00:27:39;;;;;;;6.00;4.63;;;4.60;93.30;;;;;;5102494;27;20204;-81
2022/03/03 00:30:10;;;;;;;6.20;4.70;;;4.60;93.60;;;;;;5093332;28;20207;-81
2022/03/03 00:32:40;;;;;;;7.23;5.07;;;4.60;94.10;;;;;;5083675;28;20213;-81
2022/03/03 00:35:09;;;;;;;7.20;5.03;;;4.60;94.30;;;;;;5079628;28;20199;-80
2022/03/03 00:37:38;;;;;;;7.67;5.30;;;4.60;94.80;;;;;;5112394;27;20195;-77
2022/03/03 00:40:04;;;;;;;9.50;5.60;;;4.50;95.30;;;;;;5064089;28;20192;-82
2022/03/03 00:42:35;;;;;;;6.80;5.13;;;4.50;95.60;;;;;;5080675;28;20271;-82
2022/03/03 00:45:03;;;;;;;8.83;5.60;;;4.50;95.70;;;;;;5110773;27;20223;-79
2022/03/03 00:47:31;;;;;;;8.63;5.90;;;4.50;95.90;;;;;;5116029;27;20234;-77
2022/03/03 00:49:57;;;;;;;8.77;5.90;;;4.50;96.40;;;;;;5077553;28;20202;-78
2022/03/03 00:52:25;;;;;;;8.33;5.80;;;4.50;96.70;;;;;;5066041;28;20187;-80
2022/03/03 00:54:53;;;;;;;6.80;5.30;;;4.40;97.20;;;;;;5108555;27;20180;-80
2022/03/03 00:57:23;;;;;;;7.10;5.07;;;4.40;96.90;;;;;;5073929;28;20223;-76
2022/03/03 00:59:49;;;;;;;6.90;5.03;;;4.40;97.40;;;;;;5075734;28;20198;-82
2022/03/03 01:02:15;;;;;;;8.53;4.97;;;4.40;97.10;;;;;;5106426;28;20164;-76
2022/03/03 01:04:40;;;;;;;7.67;4.93;;;4.40;97.20;;;;;;5107151;28;20431;-83
2022/03/03 01:07:06;;;;;;;8.40;4.90;;;4.30;97.30;;;;;;5077023;28;20206;-75
2022/03/03 01:09:32;;;;;;;5.00;4.13;;;4.40;97.40;;;;;;5082930;28;20179;-81
2022/03/03 01:11:57;;;;;;;6.60;4.60;;;4.40;97.40;;;;;;5094373;28;20198;-79
2022/03/03 01:14:23;;;;;;;6.80;5.33;;;4.40;97.50;;;;;;5110695;28;20207;-81
2022/03/03 01:16:52;;;;;;;6.33;4.93;;;4.30;97.60;;;;;;5079494;28;20190;-79
2022/03/03 01:19:18;;;;;;;6.27;4.70;;;4.30;97.80;;;;;;5112442;28;20211;-82
2022/03/03 01:21:45;;;;;;;8.63;5.33;;;4.30;97.80;;;;;;5077623;28;20260;-82
2022/03/03 01:24:10;;;;;;;6.00;4.47;;;4.30;97.90;;;;;;5082430;28;20175;-80
2022/03/03 01:26:38;;;;;;;6.60;4.60;;;4.30;98.00;;;;;;5078801;28;20192;-83
2022/03/03 01:29:06;;;;;;;6.80;5.10;;;4.30;98.10;;;;;;5082610;28;20179;-80
2022/03/03 01:31:34;;;;;;;6.90;4.80;;;4.20;98.10;;;;;;5079595;28;20190;-81
2022/03/03 01:34:02;;;;;;;7.23;4.47;;;4.20;98.10;;;;;;5069778;28;20232;-82
2022/03/03 01:36:27;;;;;;;6.47;4.70;;;4.10;98.00;;;;;;5087892;28;20198;-81
2022/03/03 01:38:53;;;;;;;7.80;5.17;;;4.10;98.10;;;;;;5081442;28;20192;-81
2022/03/03 01:41:21;;;;;;;8.17;5.60;;;4.00;98.50;;;;;;5112204;28;20192;-82
2022/03/03 01:43:47;;;;;;;7.97;5.50;;;4.00;98.90;;;;;;5111575;28;20259;-78
2022/03/03 01:46:13;;;;;;;8.20;5.60;;;4.00;99.20;;;;;;5079007;28;20268;-81
2022/03/03 01:48:38;;;;;;;8.33;5.63;;;4.00;99.80;;;;;;5088489;28;20192;-81
2022/03/03 01:51:04;;;;;;;8.80;5.93;;;4.00;99.80;;;;;;5085136;28;20175;-81
2022/03/03 01:53:32;;;;;;;10.67;5.87;;;3.90;99.90;;;;;;5102828;28;20186;-82
2022/03/03 01:55:58;;;;;;;8.27;6.50;;;3.90;99.90;;;;;;5083326;28;20226;-82
2022/03/03 01:58:24;;;;;;;9.70;5.93;;;3.90;99.90;;;;;;5078298;28;20196;-81
2022/03/03 02:00:51;;;;;;;8.40;5.50;;;3.90;99.90;;;;;;5082452;28;20191;-81
2022/03/03 02:03:17;;;;;;;7.73;5.87;;;3.90;99.90;;;;;;5085083;28;20229;-80
2022/03/03 02:05:42;;;;;;;8.60;6.27;;;3.90;99.90;;;;;;5111535;28;20195;-81
2022/03/03 02:08:08;;;;;;;8.53;6.07;;;3.80;99.90;;;;;;5125154;27;20209;-82
2022/03/03 02:10:33;;;;;;;8.20;6.30;;;3.80;99.90;;;;;;5085715;28;20218;-82
2022/03/03 02:12:59;;;;;;;8.53;6.00;;;3.80;99.90;;;;;;5076699;28;20176;-80
2022/03/03 02:15:25;;;;;;;7.07;5.37;;;3.80;99.90;;;;;;5076173;28;20196;-81
2022/03/03 02:17:50;;;;;;;8.30;5.63;;;3.80;99.90;;;;;;5079789;28;20258;-82
2022/03/03 02:20:22;;;;;;;8.40;5.67;;;3.80;99.90;;;;;;5089555;28;20168;-76
2022/03/03 02:22:50;;;;;;;7.87;5.70;;;3.80;99.90;;;;;;5116829;27;20195;-77
2022/03/03 02:25:16;;;;;;;6.57;5.47;;;3.80;99.90;;;;;;5113571;28;20171;-82
2022/03/03 02:27:45;;;;;;;5.83;4.63;;;3.80;99.90;;;;;;5086627;28;20184;-81
2022/03/03 02:30:13;;;;;;;6.80;5.20;;;3.80;99.90;;;;;;5085855;28;20180;-73
2022/03/03 02:32:42;;;;;;;8.30;5.57;;;3.70;99.90;;;;;;5079998;28;20171;-81
2022/03/03 02:35:12;;;;;;;6.53;5.33;;;3.70;99.90;;;;;;5107139;28;20203;-81
2022/03/03 02:37:40;;;;;;;6.43;5.00;;;3.70;99.90;;;;;;5080796;28;20195;-81
2022/03/03 02:40:10;;;;;;;7.40;4.97;;;3.70;99.90;;;;;;5106199;28;20168;-81
2022/03/03 02:42:36;;;;;;;8.17;5.27;;;3.70;99.90;;;;;;5125199;27;20200;-81
2022/03/03 02:45:05;;;;;;;8.47;5.23;;;3.70;99.90;;;;;;5113792;27;20168;-81
2022/03/03 02:47:31;;;;;;;8.97;5.37;;;3.70;99.90;;;;;;5077514;28;20192;-80
2022/03/03 02:49:57;;;;;;;7.70;5.77;;;3.60;99.90;;;;;;5081547;28;20230;-78
2022/03/03 02:52:24;;;;;;;7.37;5.60;;;3.60;99.90;;;;;;5106093;28;20184;-80
2022/03/03 02:54:52;;;;;;;8.90;5.93;;;3.60;99.90;;;;;;5078833;28;20222;-74
2022/03/03 03:00:05;;;;;;;7.93;5.80;;;3.50;99.90;;;;;;5094484;28;20214;-78
2022/03/03 03:02:31;;;;;;;8.53;5.60;;;3.50;99.90;;;;;;5075967;28;20187;-78
2022/03/03 03:04:58;;;;;;;8.13;5.30;;;3.50;99.90;;;;;;5083134;28;20168;-78
2022/03/03 03:07:24;;;;;;;7.23;5.33;;;3.50;99.90;;;;;;5103282;27;20168;-79
2022/03/03 03:09:52;;;;;;;8.97;5.40;;;3.40;99.90;;;;;;5069566;28;20204;-80
2022/03/03 03:12:19;;;;;;;9.27;5.93;;;3.40;99.90;;;;;;5104223;27;20200;-75
2022/03/03 03:14:48;;;;;;;7.77;5.60;;;3.40;99.90;;;;;;5079906;28;20187;-77
2022/03/03 03:17:18;;;;;;;8.50;5.50;;;3.40;99.90;;;;;;5078769;28;20407;-80
2022/03/03 03:19:46;;;;;;;7.00;5.00;;;3.30;99.90;;;;;;5081654;28;20198;-79
2022/03/03 03:22:12;;;;;;;6.33;4.87;;;3.30;99.90;;;;;;5093421;28;20279;-80
2022/03/03 03:24:40;;;;;;;9.13;5.43;;;3.30;99.90;;;;;;5086932;28;20189;-79
2022/03/03 03:27:06;;;;;;;7.63;4.87;;;3.30;99.90;;;;;;5090521;28;20184;-79
2022/03/03 03:29:32;;;;;;;6.80;4.73;;;3.20;99.90;;;;;;5082692;28;20257;-77
2022/03/03 03:31:59;;;;;;;6.93;4.90;;;3.30;99.90;;;;;;5120719;27;20184;-80
2022/03/03 03:34:27;;;;;;;6.33;4.90;;;3.20;99.90;;;;;;5115726;27;20195;-70
2022/03/03 03:36:55;;;;;;;7.23;5.23;;;3.20;99.90;;;;;;5079461;28;20180;-80
2022/03/03 03:39:23;;;;;;;7.37;5.30;;;3.20;99.90;;;;;;5075076;28;20191;-79
2022/03/03 03:41:51;;;;;;;8.13;5.80;;;3.20;99.90;;;;;;5111724;27;20316;-79
2022/03/03 03:44:17;;;;;;;7.63;5.70;;;3.10;99.90;;;;;;5121804;27;20168;-72
2022/03/03 03:46:43;;;;;;;8.80;5.27;;;3.10;99.90;;;;;;5093011;28;20217;-77
2022/03/03 03:49:09;;;;;;;7.63;5.50;;;3.10;99.90;;;;;;5079399;28;20298;-76
2022/03/03 03:51:35;;;;;;;7.50;5.57;;;3.00;99.90;;;;;;5084655;28;20221;-80
2022/03/03 03:54:05;;;;;;;9.40;5.77;;;3.00;99.90;;;;;;5088370;28;20218;-79
2022/03/03 03:56:33;;;;;;;8.67;5.50;;;2.90;99.90;;;;;;5122831;27;20206;-82
2022/03/03 03:59:02;;;;;;;6.90;5.13;;;2.90;99.90;;;;;;5110638;27;20424;-83
2022/03/03 04:01:30;;;;;;;7.07;5.33;;;2.90;99.90;;;;;;5084272;28;20222;-80
2022/03/03 04:03:59;;;;;;;7.50;5.40;;;2.80;99.90;;;;;;5078740;28;20195;-82
2022/03/03 04:06:27;;;;;;;7.53;5.40;;;2.80;99.90;;;;;;5103590;27;20187;-80
2022/03/03 04:08:53;;;;;;;6.73;4.97;;;2.80;99.90;;;;;;5102316;28;20249;-81
2022/03/03 04:11:19;;;;;;;8.70;5.80;;;2.80;99.90;;;;;;5083688;28;20295;-80
2022/03/03 04:13:49;;;;;;;6.47;5.17;;;2.70;99.90;;;;;;5076703;28;20340;-82
2022/03/03 04:16:15;;;;;;;6.40;4.83;;;2.70;99.90;;;;;;5108546;27;20181;-77
2022/03/03 04:18:43;;;;;;;7.23;5.53;;;2.70;99.90;;;;;;5089602;28;20285;-71
2022/03/03 04:21:11;;;;;;;8.30;5.30;;;2.70;99.90;;;;;;5077128;28;20199;-72
2022/03/03 04:23:38;;;;;;;8.63;5.47;;;2.70;99.90;;;;;;5109936;27;20173;-70
2022/03/03 04:26:04;;;;;;;7.13;5.23;;;2.60;99.90;;;;;;5080495;28;20188;-72
2022/03/03 04:28:30;;;;;;;7.43;5.07;;;2.60;99.90;;;;;;5102225;28;20275;-73
2022/03/03 04:30:55;;;;;;;6.50;4.83;;;2.60;99.90;;;;;;5070316;28;20263;-72
2022/03/03 04:33:21;;;;;;;6.40;5.27;;;2.60;99.90;;;;;;5081329;28;20180;-72
2022/03/03 04:35:49;;;;;;;6.03;4.90;;;2.60;99.90;;;;;;5076857;28;20451;-72
2022/03/03 04:38:15;;;;;;;7.50;5.13;;;2.50;99.90;;;;;;5079805;28;20196;-72
2022/03/03 04:40:43;;;;;;;7.50;5.50;;;2.50;99.90;;;;;;5112261;27;20206;-71
2022/03/03 04:43:08;;;;;;;8.00;6.03;;;2.50;99.90;;;;;;5071760;28;20234;-72
2022/03/03 04:45:35;;;;;;;10.07;7.07;;;2.50;99.90;;;;;;5072810;28;20179;-71
2022/03/03 04:48:02;;;;;;;8.23;5.60;;;2.40;99.90;;;;;;5105383;28;20184;-72
2022/03/03 04:50:30;;;;;;;7.43;5.87;;;2.40;99.90;;;;;;5078050;28;20274;-72
2022/03/03 04:52:59;;;;;;;9.83;6.00;;;2.40;99.90;;;;;;5114269;27;20187;-70
2022/03/03 04:55:27;;;;;;;7.43;5.20;;;2.40;99.90;;;;;;5107805;28;20193;-72
2022/03/03 04:57:55;;;;;;;8.57;5.60;;;2.40;99.90;;;;;;5100264;28;20207;-71
2022/03/03 05:00:23;;;;;;;8.00;5.17;;;2.40;99.90;;;;;;5117820;27;20211;-71
2022/03/03 05:02:51;;;;;;;6.53;4.87;;;2.40;99.90;;;;;;5080038;28;20200;-72
2022/03/03 05:05:16;;;;;;;7.93;5.33;;;2.40;99.90;;;;;;5071291;28;20184;-72
2022/03/03 05:07:42;;;;;;;8.43;5.83;;;2.40;99.90;;;;;;5110020;27;20207;-71
2022/03/03 05:10:13;;;;;;;6.77;4.97;;;2.40;99.90;;;;;;5074429;28;20180;-71
2022/03/03 05:12:39;;;;;;;8.33;5.47;;;2.40;99.90;;;;;;5069007;28;20184;-72
2022/03/03 05:15:05;;;;;;;7.67;5.37;;;2.40;99.90;;;;;;5117367;28;20228;-71
2022/03/03 05:17:31;;;;;;;5.97;4.83;;;2.40;99.90;;;;;;5090951;28;20187;-72
2022/03/03 05:19:59;;;;;;;7.37;5.07;;;2.40;99.90;;;;;;5096432;28;20213;-72
2022/03/03 05:22:24;;;;;;;6.07;4.67;;;2.40;99.90;;;;;;5107814;28;20210;-72
2022/03/03 05:24:53;;;;;;;6.73;5.13;;;2.30;99.90;;;;;;5073993;28;20263;-72
2022/03/03 05:27:19;;;;;;;6.80;5.00;;;2.30;99.90;;;;;;5077184;28;20211;-72
2022/03/03 05:29:45;;;;;;;7.37;5.27;;;2.30;99.90;;;;;;5111892;28;20179;-71
2022/03/03 05:32:10;;;;;;;6.43;4.60;;;2.20;99.90;;;;;;5080614;28;20183;-70
2022/03/03 05:34:36;;;;;;;7.47;5.50;;;2.20;99.90;;;;;;5113799;28;20246;-72
2022/03/03 05:37:03;;;;;;;9.60;5.87;;;2.20;99.90;;;;;;5079459;28;20173;-73
2022/03/03 05:39:29;;;;;;;7.60;5.57;;;2.20;99.90;;;;;;5106372;28;20200;-72
2022/03/03 05:41:55;;;;;;;7.40;5.87;;;2.20;99.90;;;;;;5069953;28;20279;-68
2022/03/03 05:44:21;;;;;;;7.80;5.70;;;2.20;99.90;;;;;;5094871;28;20182;-72
2022/03/03 05:46:50;;;;;;;8.37;5.77;;;2.20;99.90;;;;;;5077513;28;20202;-73
2022/03/03 05:49:21;;;;;;;7.27;5.67;;;2.20;99.90;;;;;;5079412;28;20176;-72
2022/03/03 05:51:49;;;;;;;7.70;5.63;;;2.20;99.90;;;;;;5118706;27;20184;-71
2022/03/03 05:54:14;;;;;;;7.87;5.67;;;2.10;99.90;;;;;;5085329;28;20202;-71
2022/03/03 05:56:46;;;;;;;9.80;6.27;;;2.10;99.90;;;;;;5124778;27;20187;-74
2022/03/03 05:59:15;;;;;;;9.33;6.17;;;2.10;99.90;;;;;;5095466;28;20200;-73
2022/03/03 06:01:45;;;;;;;8.80;6.43;;;2.10;99.90;;;;;;5120609;27;20182;-72
2022/03/03 06:04:15;;;;;;;7.73;6.13;;;2.10;99.90;;;;;;5119219;27;20230;-73
2022/03/03 06:06:54;;;;;;;9.33;5.90;;;2.10;99.90;;;;;;5081553;28;20204;-74
2022/03/03 06:09:26;;;;;;;8.13;5.63;;;2.10;99.90;;;;;;5107816;27;20271;-73
2022/03/03 06:12:07;;;;;;;6.83;5.43;;;2.00;99.90;;;;;;5108757;28;20180;-73
2022/03/03 06:14:45;;;;;;;7.80;5.37;;;2.00;99.90;;;;;;5084863;28;20412;-73
2022/03/03 06:17:10;;;;;;;7.40;5.30;;;2.10;99.90;;;;;;5100606;28;20179;-72
2022/03/03 06:19:41;;;;;;;9.87;6.07;;;2.10;99.90;;;;;;5080476;28;20215;-73
2022/03/03 06:22:08;;;;;;;9.43;5.90;;;2.10;99.90;;;;;;5081354;28;20454;-73
2022/03/03 06:24:34;;;;;;;7.20;5.60;;;2.10;99.90;;;;;;5075175;28;20181;-73
2022/03/03 06:27:00;;;;;;;10.07;5.50;;;2.10;99.90;;;;;;5079269;28;20199;-72
2022/03/03 06:29:26;;;;;;;7.93;5.50;;;2.10;99.90;;;;;;5112914;27;20443;-74
2022/03/03 06:31:52;;;;;;;8.03;5.70;;;2.10;99.90;;;;;;5077373;28;20186;-72
2022/03/03 06:34:20;;;;;;;9.40;6.17;;;2.10;99.90;;;;;;5070519;28;20214;-70
2022/03/03 06:36:46;;;;;;;9.57;6.07;;;2.10;99.90;;;;;;5082853;28;20238;-72
2022/03/03 06:39:12;;;;;;;11.63;5.67;;;2.10;99.90;;;;;;5087950;28;20402;-73
2022/03/03 06:41:39;;;;;;;8.40;5.30;;;2.10;99.90;;;;;;5092437;28;20176;-73
2022/03/03 06:44:05;;;;;;;8.37;5.53;;;2.10;99.90;;;;;;5078675;28;20164;-73
2022/03/03 06:46:31;;;;;;;8.43;5.50;;;2.20;99.90;;;;;;5078167;28;20172;-72
2022/03/03 06:48:57;;;;;;;8.13;5.47;;;2.20;99.90;;;;;;5081603;28;20175;-74
2022/03/03 06:51:27;;;;;;;10.70;5.83;;;2.20;99.90;;;;;;5120197;27;20198;-73
2022/03/03 06:54:01;;;;;;;9.47;6.80;;;2.20;99.90;;;;;;5114054;28;20168;-73
2022/03/03 06:56:30;;;;;;;8.50;6.37;;;2.20;99.90;;;;;;5080076;28;20266;-73
2022/03/03 06:58:59;;;;;;;9.63;6.87;;;2.20;99.90;;;;;;5093119;28;20203;-72
2022/03/03 07:01:27;;;;;;;8.37;6.50;;;2.20;99.90;;;;;;5085503;28;20184;-73
2022/03/03 07:03:53;;;;;;;8.23;6.33;;;2.20;99.90;;;;;;5080090;28;20395;-72
2022/03/03 07:06:22;;;;;;;7.80;5.97;;;2.20;99.90;;;;;;5114462;27;20526;-74
2022/03/03 07:08:53;;;;;;;8.97;6.50;;;2.20;99.90;;;;;;5080974;28;20210;-72
2022/03/03 07:11:22;;;;;;;8.30;5.67;;;2.20;99.90;;;;;;5112961;28;20215;-73
2022/03/03 07:13:48;;;;;;;9.83;5.90;;;2.30;99.90;;;;;;5113474;27;20199;-73
2022/03/03 07:16:25;;;;;;;8.53;6.03;;;2.30;99.90;;;;;;5109161;28;20278;-74
2022/03/03 07:18:56;;;;;;;8.93;5.83;;;2.30;99.90;;;;;;5092287;28;20202;-72
2022/03/03 07:21:24;;;;;;;8.27;5.33;;;2.40;99.90;;;;;;5102194;28;20188;-74
2022/03/03 07:24:22;;;;;;;8.00;5.70;;;2.40;99.90;;;;;;5080896;28;20172;-73
2022/03/03 07:26:55;;;;;;;9.03;5.60;;;2.40;99.90;;;;;;5072528;28;20271;-74
2022/03/03 07:29:34;;;;;;;7.00;5.43;;;2.50;99.90;;;;;;5113948;28;20203;-72
2022/03/03 07:32:07;;;;;;;9.70;6.30;;;2.50;99.90;;;;;;5088192;28;20183;-73
2022/03/03 07:34:36;;;;;;;9.67;6.33;;;2.60;99.90;;;;;;5125242;27;20190;-73
2022/03/03 07:37:06;;;;;;;8.67;6.47;;;2.60;99.90;;;;;;5076679;28;20286;-73
2022/03/03 07:39:41;;;;;;;9.00;6.50;;;2.70;99.90;;;;;;5112221;27;20201;-73
2022/03/03 07:42:17;;;;;;;9.90;6.23;;;2.80;99.90;;;;;;5094356;28;20183;-71
2022/03/03 07:44:43;;;;;;;8.97;6.40;;;2.90;99.90;;;;;;5078191;28;20196;-72
2022/03/03 07:47:12;;;;;;;10.50;6.60;;;2.90;99.90;;;;;;5095355;28;20187;-71
2022/03/03 07:49:40;;;;;;;9.40;6.83;;;3.00;99.90;;;;;;5079294;28;20192;-73
2022/03/03 07:52:07;;;;;;;7.80;6.53;;;3.20;99.90;;;;;;5082991;28;20214;-73
2022/03/03 07:54:33;;;;;;;10.47;6.57;;;3.30;99.90;;;;;;5098594;28;20209;-73
2022/03/03 07:57:04;;;;;;;7.67;5.97;;;3.40;99.90;;;;;;5096147;28;20171;-70
2022/03/03 07:59:37;;;;;;;9.23;6.53;;;3.40;99.90;;;;;;5091013;28;20218;-73
2022/03/03 08:02:04;;;;;;;10.30;7.97;;;3.50;99.90;;;;;;5092616;28;20172;-73
2022/03/03 08:04:32;;;;;;;8.93;7.03;;;3.70;99.90;;;;;;5114114;27;20164;-73
2022/03/03 08:07:04;;;;;;;9.43;6.97;;;3.70;99.90;;;;;;5109459;28;20263;-72
2022/03/03 08:09:34;;;;;;;8.23;6.73;;;3.80;99.90;;;;;;5090698;28;20172;-72
2022/03/03 08:12:03;;;;;;;8.20;6.47;;;3.80;99.90;;;;;;5089728;28;20199;-71
2022/03/03 08:14:33;;;;;;;8.70;7.10;;;3.90;99.90;;;;;;5085357;28;20187;-73
2022/03/03 08:17:01;;;;;;;11.03;8.30;;;3.90;99.90;;;;;;5085684;28;20201;-73
2022/03/03 08:19:29;;;;;;;12.23;7.47;;;4.00;99.90;;;;;;5072940;28;20192;-72
2022/03/03 08:21:55;;;;;;;10.23;7.07;;;4.00;99.90;;;;;;5078047;28;20191;-72
2022/03/03 08:24:24;;;;;;;8.80;7.00;;;4.10;99.90;;;;;;5095471;28;20203;-68
2022/03/03 08:26:54;;;;;;;9.00;7.00;;;4.20;99.90;;;;;;5088307;28;20172;-72
2022/03/03 08:29:20;;;;;;;10.93;7.30;;;4.20;99.90;;;;;;5077116;28;20248;-73
2022/03/03 08:31:51;;;;;;;12.47;7.20;;;4.30;99.90;;;;;;5077358;28;20287;-73
2022/03/03 08:34:42;;;;;;;9.57;6.80;;;4.40;99.90;;;;;;5092725;28;20188;-73
2022/03/03 08:37:16;;;;;;;9.03;6.40;;;4.40;99.90;;;;;;5101568;27;20203;-74
2022/03/03 08:39:44;;;;;;;6.93;6.10;;;4.50;99.90;;;;;;5101010;28;20270;-70
2022/03/03 08:42:13;;;;;;;8.60;5.90;;;4.60;99.90;;;;;;5098693;27;20241;-73
2022/03/03 08:44:44;;;;;;;9.53;6.10;;;4.70;99.90;;;;;;5078148;28;20185;-73
2022/03/03 08:47:16;;;;;;;9.50;6.93;;;4.80;99.90;;;;;;5090901;28;20195;-73
2022/03/03 08:49:44;;;;;;;11.20;8.00;;;4.90;99.90;;;;;;5086233;28;20190;-69
2022/03/03 08:52:12;;;;;;;11.17;8.03;;;5.00;99.90;;;;;;5078249;28;20179;-73
2022/03/03 08:54:40;;;;;;;10.13;6.53;;;5.10;99.90;;;;;;5081890;28;20233;-73
2022/03/03 08:57:06;;;;;;;8.03;6.60;;;5.20;99.90;;;;;;5075066;28;20171;-72
2022/03/03 08:59:32;;;;;;;9.50;6.50;;;5.30;99.90;;;;;;5078524;28;20196;-73
2022/03/03 09:01:58;;;;;;;10.40;7.23;;;5.40;99.90;;;;;;5082416;28;20264;-74
2022/03/03 09:04:23;;;;;;;10.70;6.90;;;5.50;99.90;;;;;;5114532;27;20175;-74
2022/03/03 09:06:51;;;;;;;12.53;7.63;;;5.50;99.90;;;;;;5111864;28;20191;-72
2022/03/03 09:09:17;;;;;;;10.93;7.67;;;5.60;99.90;;;;;;5063326;28;20169;-73
2022/03/03 09:11:42;;;;;;;10.17;7.50;;;5.70;99.90;;;;;;5090376;28;20175;-74
2022/03/03 09:14:10;;;;;;;11.17;7.47;;;5.80;99.90;;;;;;5085429;28;20415;-74
2022/03/03 09:16:36;;;;;;;11.03;7.97;;;5.90;99.90;;;;;;5115886;28;20189;-72
2022/03/03 09:19:01;;;;;;;10.53;7.83;;;6.10;99.90;;;;;;5075357;28;20204;-71
2022/03/03 09:21:28;;;;;;;8.33;6.50;;;6.20;99.90;;;;;;5081296;28;20250;-74
2022/03/03 09:23:54;;;;;;;8.30;6.93;;;6.30;99.90;;;;;;5077698;28;20187;-73
2022/03/03 09:26:23;;;;;;;10.30;7.30;;;6.40;99.90;;;;;;5083387;28;20199;-73
2022/03/03 09:28:48;;;;;;;9.10;6.93;;;6.50;99.90;;;;;;5097591;28;20175;-73
2022/03/03 09:31:14;;;;;;;10.53;7.20;;;6.60;99.90;;;;;;5084658;28;20191;-70
2022/03/03 09:33:40;;;;;;;12.20;7.27;;;6.70;99.90;;;;;;5118696;27;20210;-73
2022/03/03 09:36:07;;;;;;;9.93;6.90;;;6.80;99.90;;;;;;5083637;28;20184;-73
2022/03/03 09:38:33;;;;;;;8.00;6.47;;;6.90;99.90;;;;;;5097130;28;20235;-74
2022/03/03 09:41:01;;;;;;;8.20;6.53;;;7.30;99.90;;;;;;5095353;28;20210;-74
2022/03/03 09:43:30;;;;;;;9.87;7.43;;;8.00;99.90;;;;;;5095022;28;20222;-74
2022/03/03 09:45:56;;;;;;;9.77;7.90;;;8.80;99.90;;;;;;5089746;28;20184;-75
2022/03/03 09:48:22;;;;;;;9.57;7.40;;;9.60;99.90;;;;;;5095643;28;20167;-71
2022/03/03 09:50:48;;;;;;;11.27;7.73;;;10.30;99.90;;;;;;5082248;28;20188;-71
2022/03/03 09:53:17;;;;;;;10.70;7.27;;;11.00;99.50;;;;;;5116863;27;20246;-74
2022/03/03 09:55:44;;;;;;;10.60;8.53;;;11.60;97.30;;;;;;5086191;28;20202;-73
2022/03/03 09:58:13;;;;;;;11.90;8.73;;;12.10;94.70;;;;;;5115586;27;20215;-71
2022/03/03 10:00:44;;;;;;;10.23;8.43;;;12.40;86.20;;;;;;5085303;28;20176;-73
2022/03/03 10:03:13;;;;;;;10.03;7.40;;;12.70;90.30;;;;;;5091826;28;20187;-72
2022/03/03 10:05:59;;;;;;;8.55;6.80;;;13.00;91.50;;;;;;5111149;27;20218;-73
2022/03/03 10:08:26;;;;;;;8.65;6.57;;;13.30;89.40;;;;;;5106595;27;20202;-71
2022/03/03 10:10:53;;;;;;;8.57;7.10;;;13.60;91.40;;;;;;5110795;28;20187;-73
2022/03/03 10:13:19;;;;;;;8.43;7.50;;;13.90;89.00;;;;;;5080384;28;20223;-72
2022/03/03 10:15:59;;;;;;;8.70;6.93;;;14.20;87.70;;;;;;5117313;27;20212;-75
2022/03/03 10:18:26;;;;;;;11.95;8.52;;;14.40;87.20;;;;;;5112697;27;20203;-73
2022/03/03 10:20:54;;;;;;;7.97;6.80;;;14.50;81.40;;;;;;5101510;27;20200;-73
2022/03/03 10:23:28;;;;;;;11.40;7.18;;;14.60;83.20;;;;;;5097385;28;20200;-74
2022/03/03 10:25:58;;;;;;;8.13;6.60;;;14.70;79.50;;;;;;5083441;28;20180;-74
2022/03/03 10:28:24;;;;;;;9.07;7.20;;;14.90;83.50;;;;;;5106848;27;20219;-74
2022/03/03 10:31:05;;;;;;;10.00;7.22;;;15.00;82.90;;;;;;5079558;28;20232;-72
2022/03/03 10:33:36;;;;;;;8.85;6.38;;;15.20;80.30;;;;;;5106153;28;20171;-74
2022/03/03 10:36:08;;;;;;;7.80;6.10;;;15.20;80.90;;;;;;5082045;28;20215;-75
2022/03/03 10:38:46;;;;;;;7.85;6.60;;;15.30;78.40;;;;;;5075148;28;20413;-75
2022/03/03 10:41:26;;;;;;;9.02;7.40;;;15.40;73.20;;;;;;5096872;28;20191;-75
2022/03/03 10:43:52;;;;;;;8.95;6.75;;;15.40;69.40;;;;;;5108792;27;20200;-74
2022/03/03 10:46:20;;;;;;;8.25;6.88;;;15.40;80.20;;;;;;5103348;27;20172;-74
2022/03/03 10:48:46;;;;;;;7.85;6.88;;;15.50;78.80;;;;;;5131706;27;20191;-75
2022/03/03 10:51:15;;;;;;;10.45;7.50;;;15.40;78.70;;;;;;5082953;28;20265;-74
2022/03/03 10:53:43;;;;;;;8.32;7.22;;;15.50;73.30;;;;;;5127003;27;20168;-75
2022/03/03 10:56:19;;;;;;;7.57;6.72;;;15.50;71.60;;;;;;5080776;28;20248;-74
2022/03/03 10:58:55;;;;;;;8.73;7.50;;;15.50;73.00;;;;;;5100704;28;20191;-75
2022/03/03 11:01:23;;;;;;;8.85;7.63;;;15.50;70.00;;;;;;5098762;28;20167;-75
2022/03/03 11:03:52;;;;;;;8.68;6.70;;;15.40;72.60;;;;;;5085682;28;20185;-73
2022/03/03 11:06:26;;;;;;;10.02;7.30;;;15.40;76.00;;;;;;5117700;27;20190;-72
2022/03/03 11:08:54;;;;;;;11.52;7.40;;;15.50;64.90;;;;;;5112606;28;20221;-75
2022/03/03 11:11:23;;;;;;;10.35;7.65;;;15.50;70.90;;;;;;5075747;28;20210;-75
2022/03/03 11:13:53;;;;;;;8.50;7.45;;;15.60;71.00;;;;;;5093732;28;20182;-71
2022/03/03 11:16:26;;;;;;;9.10;7.93;;;15.50;68.40;;;;;;5086331;28;20172;-75
2022/03/03 11:18:54;;;;;;;8.60;6.95;;;15.50;60.80;;;;;;5117120;27;20188;-75
2022/03/03 11:21:22;;;;;;;9.80;7.53;;;15.50;64.60;;;;;;5100147;27;20267;-75
2022/03/03 11:24:03;;;;;;;9.68;7.43;;;15.50;68.20;;;;;;5078711;28;20187;-75
2022/03/03 11:26:39;;;;;;;8.82;7.65;;;15.50;57.30;;;;;;5079558;28;20193;-73
2022/03/03 11:29:13;;;;;;;9.75;8.13;;;15.50;62.40;;;;;;5111234;27;20183;-73
2022/03/03 11:31:40;;;;;;;8.73;7.47;;;15.40;58.80;;;;;;5083792;28;20288;-75
2022/03/03 11:34:30;;;;;;;10.38;7.45;;;15.40;61.60;;;;;;5115103;27;20493;-75
2022/03/03 11:37:03;;;;;;;9.63;7.13;;;15.40;61.10;;;;;;5080251;28;20206;-74
2022/03/03 11:39:47;;;;;;;9.57;6.72;;;15.40;59.70;;;;;;5115521;27;20309;-74
2022/03/03 11:42:59;;;;;;;7.53;6.18;;;15.50;59.60;;;;;;5095541;28;20200;-75
2022/03/03 11:45:28;;;;;;;8.27;6.40;;;15.50;61.90;;;;;;5060584;28;20257;-75
2022/03/03 11:48:15;;;;;;;7.90;6.90;;;15.60;60.20;;;;;;5090325;28;20238;-75
2022/03/03 11:50:42;;;;;;;9.93;7.40;;;15.70;56.10;;;;;;5111604;27;20187;-75
2022/03/03 11:53:11;;;;;;;10.13;7.03;;;15.70;58.20;;;;;;5097460;27;20209;-71
2022/03/03 11:55:36;;;;;;;8.65;7.47;;;15.70;59.10;;;;;;5075580;28;20196;-75
2022/03/03 11:58:18;;;;;;;7.25;6.45;;;15.70;61.90;;;;;;5088786;28;20191;-74
2022/03/03 12:01:08;;;;;;;7.40;6.57;;;15.80;59.70;;;;;;5089927;28;20176;-75
2022/03/03 12:04:02;;;;;;;7.55;6.72;;;15.80;56.60;;;;;;5080436;28;20263;-75
2022/03/03 12:06:37;;;;;;;8.68;6.47;;;15.90;58.50;;;;;;5080693;28;20223;-75
2022/03/03 12:09:41;;;;;;;8.73;7.13;;;16.00;62.90;;;;;;5076695;28;20192;-74
2022/03/03 12:12:16;;;;;;;7.35;6.57;;;16.10;60.90;;;;;;5029528;28;20188;-75
2022/03/03 12:14:48;;;;;;;8.23;6.60;;;16.20;65.20;;;;;;5076277;28;20183;-74
2022/03/03 12:17:36;;;;;;;7.22;6.35;;;16.40;65.80;;;;;;5079871;28;20265;-75
2022/03/03 12:20:24;;;;;;;6.95;6.25;;;16.60;62.60;;;;;;5089436;28;20194;-75
2022/03/03 12:23:19;;;;;;;10.88;7.53;;;16.80;64.80;;;;;;5090548;28;20172;-74
2022/03/03 12:25:47;;;;;;;8.68;7.15;;;17.00;62.50;;;;;;5113693;27;20227;-74
2022/03/03 12:28:25;;;;;;;7.78;6.90;;;17.10;65.40;;;;;;5096475;27;20215;-80
2022/03/03 12:30:53;;;;;;;9.52;7.15;;;17.20;62.70;;;;;;5078930;28;20219;-79
2022/03/03 12:33:37;;;;;;;9.88;6.75;;;17.20;64.00;;;;;;5096471;28;20200;-76
2022/03/03 12:36:05;;;;;;;8.32;7.07;;;17.30;61.90;;;;;;5080444;28;20198;-79
2022/03/03 12:38:35;;;;;;;8.25;6.60;;;17.40;64.80;;;;;;5091714;28;20208;-76
2022/03/03 12:41:03;;;;;;;8.32;6.35;;;17.50;65.50;;;;;;5110260;28;20180;-80
2022/03/03 12:43:41;;;;;;;9.18;6.97;;;17.60;68.10;;;;;;5123316;27;20179;-77
2022/03/03 12:46:08;;;;;;;7.47;6.75;;;17.70;63.20;;;;;;5081333;28;20176;-77
2022/03/03 12:48:34;;;;;;;8.15;6.85;;;17.80;64.50;;;;;;5078040;28;20194;-79
2022/03/03 12:51:04;;;;;;;8.38;7.32;;;17.80;66.50;;;;;;5111194;28;20196;-79
2022/03/03 12:53:39;;;;;;;8.02;7.07;;;17.90;61.80;;;;;;5064599;28;20176;-81
2022/03/03 12:56:09;;;;;;;8.30;6.53;;;18.00;62.20;;;;;;5105674;28;20245;-79
2022/03/03 12:58:36;;;;;;;8.18;7.28;;;18.10;62.70;;;;;;5114865;27;20300;-81
2022/03/03 13:01:02;;;;;;;8.13;7.07;;;18.10;63.80;;;;;;5113648;27;20168;-80
2022/03/03 13:03:33;;;;;;;7.45;6.68;;;18.20;64.00;;;;;;5076114;28;20168;-81
2022/03/03 13:06:03;;;;;;;7.90;6.40;;;18.20;61.30;;;;;;5091228;28;20215;-81